Time;durP1;ratioP1;P1;durP2;ratioP2;P2;SDS_P1;SDS_P2;PMS_P1;PMS_P2;Temp;Humidity;BMP_temperature;BMP_pressure;BME280_temperature;BME280_humidity;BME280_pressure;Samples;Min_cycle;Max_cycle;Signal;HPM_P1;HPM_P2
2022/06/11 00:00:55;;;;;;;17.53;12.23;;;;;;;-143.84;95.94;45068.13;5034963;28;20550;-71
2022/06/11 00:03:22;;;;;;;14.07;12.77;;;;;;;-143.84;95.95;45104.28;5034791;28;20478;-71
2022/06/11 00:05:51;;;;;;;13.27;11.97;;;;;;;-143.84;96.21;45073.81;5032200;28;20943;-71
2022/06/11 00:08:19;;;;;;;14.47;13.00;;;;;;;-143.84;96.05;45068.13;5031242;28;20860;-71
2022/06/11 00:10:47;;;;;;;15.93;12.23;;;;;;;-143.84;96.16;45089.06;5031160;28;21002;-71
2022/06/11 00:13:15;;;;;;;13.33;12.13;;;;;;;-143.84;95.99;45083.34;5031589;28;20497;-71
2022/06/11 00:15:42;;;;;;;19.03;14.07;;;;;;;-143.84;95.79;45073.81;5031343;28;20968;-71
2022/06/11 00:18:10;;;;;;;13.57;12.37;;;;;;;-143.84;95.99;45085.25;5031455;28;20435;-71
2022/06/11 00:20:37;;;;;;;13.30;12.10;;;;;;;-143.84;95.39;45079.53;5031477;28;20445;-71
2022/06/11 00:23:06;;;;;;;13.27;11.97;;;;;;;-143.84;95.07;45098.56;5031801;28;21004;-71
2022/06/11 00:25:35;;;;;;;12.80;11.50;;;;;;;-143.84;94.88;45108.09;5031533;28;20553;-71
2022/06/11 00:28:03;;;;;;;13.00;11.90;;;;;;;-143.84;94.77;45113.81;5031548;28;20474;-71
2022/06/11 00:30:31;;;;;;;13.60;12.30;;;;;;;-143.84;94.52;45087.16;5031260;28;20439;-71
2022/06/11 00:32:58;;;;;;;12.50;11.40;;;;;;;-143.84;94.01;45102.38;5031413;28;20438;-71
2022/06/11 00:35:26;;;;;;;12.10;11.10;;;;;;;-143.84;93.79;45090.97;5031409;28;20500;-71
2022/06/11 00:37:53;;;;;;;11.60;10.47;;;;;;;-143.84;93.44;45090.97;5031103;28;20438;-70
2022/06/11 00:40:25;;;;;;;15.17;11.00;;;;;;;-143.84;93.20;45106.19;5030977;28;20497;-71
2022/06/11 00:42:52;;;;;;;12.77;11.50;;;;;;;-143.84;93.74;45113.81;5031065;28;20512;-70
2022/06/11 00:45:29;;;;;;;12.03;10.83;;;;;;;-143.84;94.31;45075.72;5031174;28;20560;-71
2022/06/11 00:48:00;;;;;;;12.60;11.20;;;;;;;-143.84;94.65;45100.47;5031432;28;20443;-71
2022/06/11 00:50:33;;;;;;;10.27;9.47;;;;;;;-143.84;94.68;45092.88;5031099;28;20989;-71
2022/06/11 00:53:02;;;;;;;9.90;9.03;;;;;;;-143.84;94.66;45113.81;5030931;28;20856;-71
2022/06/11 00:55:37;;;;;;;11.03;10.13;;;;;;;-143.84;94.83;45102.38;5030782;28;20435;-71
2022/06/11 00:58:08;;;;;;;13.40;10.00;;;;;;;-143.84;94.79;45130.94;5030883;28;20450;-71
2022/06/11 01:00:40;;;;;;;11.07;10.07;;;;;;;-143.84;95.10;45081.44;5031049;28;20446;-71
2022/06/11 01:03:07;;;;;;;11.60;10.50;;;;;;;-143.84;95.08;45068.13;5030751;28;20533;-70
2022/06/11 01:05:38;;;;;;;18.27;11.70;;;;;;;-143.84;95.05;45098.56;5030627;28;20482;-71
2022/06/11 01:08:29;;;;;;;16.90;11.43;;;;;;;-143.84;95.08;45132.84;5030505;28;20497;-71
2022/06/11 01:11:37;;;;;;;12.90;11.60;;;;;;;-143.84;95.00;45123.34;5030950;28;20851;-71
2022/06/11 01:14:21;;;;;;;13.03;11.70;;;;;;;-143.84;94.89;45090.97;5030497;28;20442;-71
2022/06/11 01:16:56;;;;;;;15.10;10.97;;;;;;;-143.84;94.52;45104.28;5030181;28;20446;-71
2022/06/11 01:20:03;;;;;;;13.50;11.20;;;;;;;-143.84;94.33;45094.78;5030606;28;20434;-71
2022/06/11 01:22:51;;;;;;;12.00;11.00;;;;;;;-143.84;93.97;45064.31;5030301;28;20462;-71
2022/06/11 01:25:29;;;;;;;11.37;10.37;;;;;;;-143.84;93.97;45096.66;5030358;28;20494;-71
2022/06/11 01:28:26;;;;;;;12.43;10.27;;;;;;;-143.84;93.94;45102.38;5030222;28;20553;-71
2022/06/11 01:30:58;;;;;;;15.80;11.30;;;;;;;-143.84;94.08;45090.97;5029972;28;20448;-70
2022/06/11 01:33:38;;;;;;;11.20;10.20;;;;;;;-143.84;94.25;45090.97;5030474;28;20443;-71
2022/06/11 01:36:11;;;;;;;16.10;9.73;;;;;;;-143.84;94.26;45102.38;5030358;28;20851;-70
2022/06/11 01:38:41;;;;;;;11.77;9.77;;;;;;;-143.84;94.37;45104.28;5029789;28;20438;-71
2022/06/11 01:41:23;;;;;;;10.33;9.30;;;;;;;-143.84;94.95;45081.44;5030058;28;20447;-71
2022/06/11 01:43:54;;;;;;;11.57;10.47;;;;;;;-143.84;95.22;45089.06;5029590;28;20481;-70
2022/06/11 01:46:26;;;;;;;11.00;10.00;;;;;;;-143.84;95.48;45073.81;5030626;28;20443;-71
2022/06/11 01:48:57;;;;;;;10.87;9.87;;;;;;;-143.84;95.02;45085.25;5029964;28;20458;-70
2022/06/11 01:51:35;;;;;;;10.47;9.47;;;;;;;-143.84;95.10;45068.13;5030027;28;20435;-71
2022/06/11 01:54:25;;;;;;;10.53;9.10;;;;;;;-143.84;95.36;45111.91;5029522;28;20446;-71
2022/06/11 01:57:14;;;;;;;11.90;9.70;;;;;;;-143.84;94.41;45070.00;5029906;28;20502;-70
2022/06/11 02:00:03;;;;;;;9.90;9.03;;;;;;;-143.84;93.94;45090.97;5029420;28;20438;-71
2022/06/11 02:02:47;;;;;;;9.87;8.93;;;;;;;-143.84;94.38;45117.63;5029491;28;20525;-70
2022/06/11 02:05:19;;;;;;;14.37;10.90;;;;;;;-143.84;94.59;45090.97;5029521;28;20478;-70
2022/06/11 02:07:56;;;;;;;12.00;9.47;;;;;;;-143.84;95.30;45083.34;5029604;28;20998;-70
2022/06/11 02:10:33;;;;;;;10.87;9.73;;;;;;;-143.84;95.35;45117.63;5029407;28;20849;-71
2022/06/11 02:13:06;;;;;;;9.40;8.57;;;;;;;-143.84;95.53;45071.91;5029392;28;20446;-71
2022/06/11 02:15:38;;;;;;;10.10;8.93;;;;;;;-143.84;95.36;45094.78;5029336;28;20831;-71
2022/06/11 02:18:11;;;;;;;12.13;8.77;;;;;;;-143.84;95.03;45090.97;5029227;28;20443;-71
2022/06/11 02:20:42;;;;;;;11.13;8.80;;;;;;;-143.84;95.41;45096.66;5028969;28;20443;-71
2022/06/11 02:23:15;;;;;;;10.10;9.23;;;;;;;-143.84;95.16;45096.66;5029058;28;20447;-71
2022/06/11 02:25:46;;;;;;;10.97;9.97;;;;;;;-143.84;94.96;45089.06;5029149;28;20543;-71
2022/06/11 02:28:19;;;;;;;11.93;10.07;;;;;;;-143.84;94.88;45077.63;5028736;28;20435;-71
2022/06/11 02:30:49;;;;;;;9.50;8.70;;;;;;;-143.84;94.48;45090.97;5029001;28;20501;-71
2022/06/11 02:33:20;;;;;;;11.20;10.03;;;;;;;-143.84;94.45;45073.81;5029193;28;21172;-71
2022/06/11 02:35:58;;;;;;;11.07;9.50;;;;;;;-143.84;94.66;45085.25;5029044;28;20865;-71
2022/06/11 02:38:28;;;;;;;9.10;8.30;;;;;;;-143.84;95.02;45092.88;5028946;28;20443;-71
2022/06/11 02:40:58;;;;;;;10.70;9.80;;;;;;;-143.84;94.93;45102.38;5028915;28;20434;-71
2022/06/11 02:43:25;;;;;;;9.93;8.93;;;;;;;-143.84;95.07;45113.81;5029303;28;20441;-71
2022/06/11 02:45:52;;;;;;;10.57;9.57;;;;;;;-143.84;95.07;45119.53;5029147;28;20500;-70
2022/06/11 02:48:21;;;;;;;16.63;10.50;;;;;;;-143.84;94.88;45098.56;5029162;28;21426;-71
2022/06/11 02:50:49;;;;;;;11.50;10.50;;;;;;;-143.84;95.40;45113.81;5028765;28;20451;-70
2022/06/11 02:53:18;;;;;;;11.90;10.90;;;;;;;-143.84;95.64;45098.56;5028841;28;20442;-70
2022/06/11 02:55:46;;;;;;;12.37;11.10;;;;;;;-143.84;95.87;45110.00;5029073;28;20881;-70
2022/06/11 02:58:14;;;;;;;14.97;10.67;;;;;;;-143.84;95.99;45083.34;5028902;28;20439;-70
2022/06/11 03:00:47;;;;;;;13.57;12.37;;;;;;;-143.84;96.24;45052.88;5028856;28;20497;-70
2022/06/11 03:03:15;;;;;;;16.43;11.87;;;;;;;-143.84;96.60;45092.88;5030442;28;20431;-71
2022/06/11 03:05:44;;;;;;;16.83;12.43;;;;;;;-143.84;96.90;45115.72;5030544;28;20474;-72
2022/06/11 03:08:11;;;;;;;14.80;12.70;;;;;;;-143.84;97.24;45094.78;5030430;28;20987;-72
2022/06/11 03:10:39;;;;;;;14.70;13.20;;;;;;;-143.84;97.50;45083.34;5030409;28;21214;-72
2022/06/11 03:13:07;;;;;;;17.90;13.30;;;;;;;-143.84;97.87;45111.91;5030733;28;20482;-72
2022/06/11 03:15:35;;;;;;;18.13;14.13;;;;;;;-143.84;98.45;45075.72;5030238;28;20435;-72
2022/06/11 03:18:02;;;;;;;14.30;12.87;;;;;;;-143.84;98.50;45089.06;5029894;28;20447;-72
2022/06/11 03:20:33;;;;;;;15.23;13.77;;;;;;;-143.84;98.97;45081.44;5028409;28;20493;-70
2022/06/11 03:23:01;;;;;;;15.73;13.67;;;;;;;-143.84;99.30;45071.91;5026492;28;20488;-70
2022/06/11 03:25:29;;;;;;;17.40;15.37;;;;;;;-143.84;99.62;45079.53;5023012;28;20494;-70
2022/06/11 03:27:56;;;;;;;16.10;14.60;;;;;;;-143.84;99.82;45077.63;5011480;28;20452;-70
2022/06/11 03:30:23;;;;;;;16.23;14.73;;;;;;;-143.84;100.00;45066.22;5009472;28;20432;-70
2022/06/11 03:32:50;;;;;;;17.83;15.00;;;;;;;-143.84;100.00;45064.31;5009052;28;20443;-71
2022/06/11 03:35:18;;;;;;;16.97;15.27;;;;;;;-143.84;100.00;45071.91;5008957;28;20447;-71
2022/06/11 03:37:45;;;;;;;17.10;15.30;;;;;;;-143.84;100.00;45058.59;5008919;28;20497;-71
2022/06/11 03:40:14;;;;;;;16.80;15.10;;;;;;;-143.84;100.00;45068.13;5008829;28;20447;-71
2022/06/11 03:42:42;;;;;;;17.90;16.03;;;;;;;-143.84;100.00;45050.97;5012476;28;20443;-73
2022/06/11 03:45:11;;;;;;;17.97;14.93;;;;;;;-143.84;100.00;45062.41;5012551;28;21322;-71
2022/06/11 03:47:40;;;;;;;18.03;16.10;;;;;;;-143.84;100.00;45054.78;5012870;28;20455;-72
2022/06/11 03:50:10;;;;;;;16.87;14.43;;;;;;;-143.84;99.76;45058.59;5012221;28;20451;-70
2022/06/11 04:05:28;;;;;;;20.60;16.33;;;;;;;-143.84;98.17;45070.00;5022745;28;20644;-68
2022/06/11 04:07:55;;;;;;;17.30;15.37;;;;;;;-143.84;97.92;45075.72;5022694;28;20508;-68
2022/06/11 04:10:22;;;;;;;26.83;15.07;;;;;;;-143.84;98.17;45087.16;5022476;28;20438;-68
2022/06/11 04:12:49;;;;;;;19.30;17.40;;;;;;;-143.84;98.19;45090.97;5022300;28;20435;-68
2022/06/11 04:15:17;;;;;;;17.53;15.10;;;;;;;-143.84;98.25;45056.69;5022522;28;20439;-68
2022/06/11 04:17:44;;;;;;;22.47;16.13;;;;;;;-143.84;98.59;45058.59;5022684;28;20439;-70
2022/06/11 04:20:13;;;;;;;20.43;16.47;;;;;;;-143.84;98.65;45060.50;5022733;28;20516;-68
2022/06/11 04:22:42;;;;;;;18.20;16.33;;;;;;;-143.84;98.70;45066.22;5022902;28;20439;-68
2022/06/11 04:25:12;;;;;;;18.00;15.80;;;;;;;-143.84;98.82;45049.06;5022343;28;20495;-68
2022/06/11 04:27:39;;;;;;;17.10;15.37;;;;;;;-143.84;98.92;45068.13;5022559;28;20439;-73
2022/06/11 04:30:08;;;;;;;20.40;16.67;;;;;;;-143.84;98.92;45047.16;5021694;28;20443;-73
2022/06/11 04:32:35;;;;;;;18.53;16.60;;;;;;;-143.84;99.10;45060.50;5022116;28;20499;-73
2022/06/11 04:35:02;;;;;;;18.77;16.87;;;;;;;-143.84;99.09;45054.78;5022413;28;20501;-73
2022/06/11 04:37:31;;;;;;;20.10;16.20;;;;;;;-143.84;99.15;45056.69;5022399;28;20863;-73
2022/06/11 04:40:02;;;;;;;18.20;16.47;;;;;;;-143.84;98.83;45075.72;5022318;28;20451;-73
2022/06/11 04:42:30;;;;;;;17.77;16.03;;;;;;;-143.84;98.66;45045.25;5022153;28;20447;-73
2022/06/11 04:44:57;;;;;;;22.67;17.17;;;;;;;-143.84;98.40;45033.84;5022060;28;21108;-73
2022/06/11 04:47:27;;;;;;;17.60;15.57;;;;;;;-143.84;98.38;45037.66;5022301;28;21014;-73
2022/06/11 04:49:57;;;;;;;16.20;14.47;;;;;;;-143.84;98.46;45087.16;5021897;28;20499;-73
2022/06/11 04:52:24;;;;;;;16.93;15.33;;;;;;;-143.84;98.75;45047.16;5021951;28;20451;-73
2022/06/11 04:54:52;;;;;;;21.60;17.30;;;;;;;-143.84;98.36;45060.50;5022359;28;21286;-73
2022/06/11 04:57:22;;;;;;;19.77;17.57;;;;;;;-143.84;98.69;45081.44;5022198;28;20439;-73
2022/06/11 04:59:49;;;;;;;26.10;17.33;;;;;;;-143.84;98.50;45047.16;5021773;28;20450;-74
2022/06/11 05:02:17;;;;;;;19.80;16.10;;;;;;;-143.84;98.63;45049.06;5021926;28;20442;-73
2022/06/11 05:04:44;;;;;;;18.70;15.20;;;;;;;-143.84;98.25;45047.16;5017124;28;21012;-73
2022/06/11 05:07:12;;;;;;;22.13;15.57;;;;;;;-143.84;98.21;45083.34;5008604;28;20960;-73
2022/06/11 05:09:41;;;;;;;17.53;15.73;;;;;;;-143.84;97.88;45045.25;5008729;28;20439;-73
2022/06/11 05:12:08;;;;;;;16.57;15.10;;;;;;;-143.84;97.80;45050.97;5008497;28;20455;-73
2022/06/11 05:14:37;;;;;;;21.27;17.17;;;;;;;-143.84;97.91;45068.13;5008412;28;20992;-73
2022/06/11 05:17:06;;;;;;;19.40;15.03;;;;;;;-143.84;97.81;45064.31;5008530;28;20440;-73
2022/06/11 05:19:33;;;;;;;20.10;16.97;;;;;;;-143.84;97.77;45068.13;5008378;28;20442;-73
2022/06/11 05:22:00;;;;;;;23.77;16.53;;;;;;;-143.84;98.11;45081.44;5008250;28;20496;-73
2022/06/11 05:24:29;;;;;;;18.37;16.57;;;;;;;-143.84;98.03;45064.31;5008451;28;20879;-73
2022/06/11 05:27:00;;;;;;;21.73;17.90;;;;;;;-143.84;98.29;45043.34;5008453;28;20469;-71
2022/06/11 05:29:30;;;;;;;23.47;18.20;;;;;;;-143.84;98.66;45035.75;5008488;28;20435;-71
2022/06/11 05:31:59;;;;;;;19.63;17.60;;;;;;;-143.84;98.86;45064.31;5008521;28;20520;-71
2022/06/11 05:34:27;;;;;;;21.30;18.00;;;;;;;-143.84;98.73;45070.00;5007447;28;20528;-71
2022/06/11 05:36:54;;;;;;;18.77;16.93;;;;;;;-143.84;98.88;45066.22;5007544;28;20947;-71
2022/06/11 05:39:22;;;;;;;22.80;18.03;;;;;;;-143.84;99.30;45079.53;5007835;28;20477;-71
2022/06/11 05:41:49;;;;;;;22.80;19.40;;;;;;;-143.84;99.32;45039.53;5008067;28;20500;-71
2022/06/11 05:44:16;;;;;;;20.93;18.80;;;;;;;-143.84;99.16;45043.34;5008971;28;20444;-70
2022/06/11 05:46:44;;;;;;;19.67;17.77;;;;;;;-143.84;98.97;45054.78;5009453;28;20513;-70
2022/06/11 05:49:19;;;;;;;24.50;18.47;;;;;;;-143.84;99.36;45035.75;5009420;28;20474;-70
2022/06/11 05:51:52;;;;;;;20.60;17.40;;;;;;;-143.84;98.84;45050.97;5007894;28;20447;-70
2022/06/11 05:54:23;;;;;;;19.47;17.53;;;;;;;-143.84;98.71;45056.69;5006830;28;20949;-71
2022/06/11 05:56:51;;;;;;;21.60;16.60;;;;;;;-143.84;98.48;45022.41;5007992;28;20447;-71
2022/06/11 05:59:23;;;;;;;20.93;15.53;;;;;;;-143.84;98.42;45079.53;5007778;28;20438;-71
2022/06/11 06:01:51;;;;;;;21.77;17.17;;;;;;;-143.84;98.59;45056.69;5007968;28;20440;-71
2022/06/11 06:04:20;;;;;;;20.60;15.53;;;;;;;-143.84;98.50;45045.25;5007424;28;20480;-71
2022/06/11 06:06:47;;;;;;;21.20;16.10;;;;;;;-143.84;98.46;45047.16;5007545;28;20444;-71
2022/06/11 06:09:14;;;;;;;28.80;17.67;;;;;;;-143.84;98.24;45056.69;5007540;28;20444;-71
2022/06/11 06:11:41;;;;;;;22.43;17.40;;;;;;;-143.84;98.18;45043.34;5007549;28;20474;-71
2022/06/11 06:14:09;;;;;;;23.97;16.20;;;;;;;-143.84;97.73;45050.97;5007568;28;20839;-71
2022/06/11 06:16:36;;;;;;;19.80;16.40;;;;;;;-143.84;97.50;45083.34;5006591;28;20451;-71
2022/06/11 06:19:03;;;;;;;18.87;17.03;;;;;;;-143.84;97.67;45018.59;5007403;28;20451;-71
2022/06/11 06:21:37;;;;;;;19.50;17.30;;;;;;;-143.84;97.83;45049.06;5007473;28;20537;-71
2022/06/11 06:24:05;;;;;;;20.13;17.23;;;;;;;-143.84;97.76;45062.41;5007434;28;20459;-71
2022/06/11 06:26:32;;;;;;;22.87;18.20;;;;;;;-143.84;97.87;45068.13;5007387;28;20439;-71
2022/06/11 06:29:00;;;;;;;18.23;16.53;;;;;;;-143.84;98.07;45054.78;5007613;28;20439;-71
2022/06/11 06:31:27;;;;;;;27.63;19.00;;;;;;;-143.84;97.92;45041.44;5007548;28;20436;-71
2022/06/11 06:33:58;;;;;;;24.07;18.57;;;;;;;-143.84;97.91;45071.91;5007639;28;20479;-71
2022/06/11 06:36:26;;;;;;;24.70;19.43;;;;;;;-143.84;98.03;45039.53;5007320;28;20447;-71
2022/06/11 06:38:55;;;;;;;24.57;18.20;;;;;;;-143.84;97.74;45012.88;5006179;28;20452;-70
2022/06/11 06:41:22;;;;;;;23.60;19.43;;;;;;;-143.84;98.01;45056.69;5007476;28;20458;-71
2022/06/11 06:43:50;;;;;;;21.10;17.50;;;;;;;-143.84;97.66;45083.34;5007479;28;20440;-72
2022/06/11 06:46:18;;;;;;;33.57;18.63;;;;;;;-143.84;97.90;45071.91;5007230;28;20432;-71
2022/06/11 06:48:46;;;;;;;29.47;18.83;;;;;;;-143.84;98.18;45058.59;5007099;28;20648;-72
2022/06/11 06:51:14;;;;;;;26.77;17.40;;;;;;;-143.84;98.45;45039.53;5007200;28;20893;-70
2022/06/11 06:53:44;;;;;;;28.50;19.17;;;;;;;-143.84;98.53;45012.88;5006882;28;20820;-70
2022/06/11 06:56:12;;;;;;;22.83;18.93;;;;;;;-143.84;98.97;45037.66;5006910;28;20547;-70
2022/06/11 06:58:40;;;;;;;22.87;19.60;;;;;;;-143.84;98.92;45054.78;5007159;28;20505;-70
2022/06/11 07:01:07;;;;;;;22.93;17.37;;;;;;;-143.84;98.95;45064.31;5007298;28;20443;-70
2022/06/11 07:03:35;;;;;;;22.50;18.30;;;;;;;-143.84;98.60;45041.44;5006712;28;20483;-70
2022/06/11 07:06:03;;;;;;;19.90;17.80;;;;;;;-143.84;97.61;45037.66;5007355;28;20432;-70
2022/06/11 07:08:31;;;;;;;18.73;16.83;;;;;;;-143.84;97.35;45041.44;5006481;28;20542;-70
2022/06/11 07:10:58;;;;;;;21.43;17.00;;;;;;;-143.84;97.01;45075.72;5006941;28;20501;-70
2022/06/11 07:13:27;;;;;;;17.90;16.10;;;;;;;-143.84;97.14;45085.25;5006843;28;20452;-70
2022/06/11 07:15:56;;;;;;;21.90;17.43;;;;;;;-143.84;97.38;45060.50;5007852;28;21361;-69
2022/06/11 07:18:28;;;;;;;24.37;18.27;;;;;;;-143.84;97.59;45062.41;5006994;28;20444;-69
2022/06/11 07:20:59;;;;;;;27.53;19.80;;;;;;;-143.84;97.83;45056.69;5007506;28;20520;-69
2022/06/11 07:23:31;;;;;;;23.57;18.60;;;;;;;-143.84;97.85;45070.00;5007096;28;20439;-69
2022/06/11 07:26:00;;;;;;;22.63;19.00;;;;;;;-143.84;98.53;45035.75;5008071;28;20909;-69
2022/06/11 07:28:35;;;;;;;20.63;18.53;;;;;;;-143.84;98.55;45037.66;5007935;28;20844;-69
2022/06/11 07:31:02;;;;;;;28.33;20.63;;;;;;;-143.84;98.91;45039.53;5005363;28;20451;-69
2022/06/11 07:33:30;;;;;;;24.30;20.03;;;;;;;-143.84;98.81;45026.22;4996804;28;20444;-69
2022/06/11 07:35:58;;;;;;;23.73;18.80;;;;;;;-143.84;99.06;45028.13;4987246;28;20472;-69
2022/06/11 07:38:25;;;;;;;28.93;18.87;;;;;;;-143.84;99.11;45033.84;4986634;28;20502;-69
2022/06/11 07:40:52;;;;;;;26.60;19.30;;;;;;;-143.84;99.40;45049.06;4987401;28;20451;-69
2022/06/11 07:43:20;;;;;;;29.90;17.90;;;;;;;-143.84;99.18;45026.22;4987600;28;20448;-69
2022/06/11 07:45:49;;;;;;;25.80;20.20;;;;;;;-143.84;99.09;45037.66;4987678;28;20463;-69
2022/06/11 07:48:17;;;;;;;23.27;18.70;;;;;;;-143.84;99.41;45041.44;4987529;28;20445;-69
2022/06/11 07:50:47;;;;;;;21.93;18.73;;;;;;;-143.84;99.25;45041.44;4987170;28;21000;-69
2022/06/11 07:53:14;;;;;;;31.07;20.37;;;;;;;-143.84;99.30;45050.97;4986895;28;20453;-69
2022/06/11 07:55:44;;;;;;;21.87;19.67;;;;;;;-143.84;99.46;45018.59;4987102;28;20503;-69
2022/06/11 07:58:13;;;;;;;29.07;19.80;;;;;;;-143.84;99.38;45022.41;4987254;28;21024;-69
2022/06/11 08:00:42;;;;;;;22.20;18.40;;;;;;;-143.84;99.57;45030.03;4987233;28;20557;-69
2022/06/11 08:03:11;;;;;;;20.80;18.60;;;;;;;-143.84;99.52;45026.22;4987761;28;20452;-70
2022/06/11 08:05:39;;;;;;;28.80;18.37;;;;;;;-143.84;99.34;45010.97;4987725;28;20452;-70
2022/06/11 08:08:08;;;;;;;21.53;17.60;;;;;;;-143.84;99.09;45030.03;4987933;28;21166;-70
2022/06/11 08:10:37;;;;;;;20.47;17.87;;;;;;;-143.84;99.28;45030.03;4988356;28;20445;-70
2022/06/11 08:13:05;;;;;;;24.97;17.97;;;;;;;-143.84;99.32;45035.75;4987573;28;20441;-70
2022/06/11 08:15:33;;;;;;;18.87;16.83;;;;;;;-143.84;99.15;45009.09;4986649;28;20465;-70
2022/06/11 08:18:00;;;;;;;23.70;18.17;;;;;;;-143.84;99.03;45014.78;4987050;28;20449;-70
2022/06/11 08:20:31;;;;;;;20.83;16.10;;;;;;;-143.84;99.02;45056.69;4986923;28;20441;-70
2022/06/11 08:22:59;;;;;;;22.50;17.60;;;;;;;-143.84;98.59;45041.44;4986830;28;20504;-70
2022/06/11 08:25:27;;;;;;;34.47;18.20;;;;;;;-143.84;98.53;45041.44;4986720;28;20463;-70
2022/06/11 08:27:54;;;;;;;25.80;17.30;;;;;;;-143.84;98.78;45039.53;4986447;28;20433;-71
2022/06/11 08:30:23;;;;;;;18.70;16.73;;;;;;;-143.84;98.58;45043.34;4986334;28;20945;-71
2022/06/11 08:32:51;;;;;;;18.60;16.27;;;;;;;-143.84;98.51;45033.84;4986974;28;20432;-71
2022/06/11 08:35:22;;;;;;;22.17;16.90;;;;;;;-143.84;98.66;45064.31;4986434;28;20472;-70
2022/06/11 08:37:51;;;;;;;25.87;16.30;;;;;;;-143.84;98.18;45039.53;4985932;28;20539;-69
2022/06/11 08:40:23;;;;;;;20.70;16.83;;;;;;;-143.84;98.46;45058.59;4987172;28;20530;-70
2022/06/11 08:42:57;;;;;;;20.27;17.03;;;;;;;-143.84;98.23;45035.75;4989206;28;20799;-70
2022/06/11 08:45:27;;;;;;;35.60;16.47;;;;;;;-143.84;98.15;45062.41;4989165;28;20942;-69
2022/06/11 08:48:01;;;;;;;21.60;17.30;;;;;;;-143.84;98.14;45037.66;4989435;28;20438;-70
2022/06/11 08:50:34;;;;;;;21.93;16.83;;;;;;;-143.84;98.14;45031.94;4989412;28;20436;-70
2022/06/11 08:53:06;;;;;;;18.70;16.77;;;;;;;-143.84;98.00;45037.66;4988761;28;20464;-69
2022/06/11 08:55:36;;;;;;;19.37;17.23;;;;;;;-143.84;98.15;45031.94;4989070;28;20488;-69
2022/06/11 08:58:13;;;;;;;21.97;18.73;;;;;;;-143.84;98.10;45064.31;4989298;28;20453;-69
2022/06/11 09:00:48;;;;;;;24.97;16.90;;;;;;;-143.84;98.02;45030.03;4989162;28;20428;-70
2022/06/11 09:03:25;;;;;;;20.23;15.17;;;;;;;-143.84;98.24;45037.66;4988774;28;20462;-70
2022/06/11 09:06:07;;;;;;;20.20;18.00;;;;;;;-143.84;98.60;45030.03;4988850;28;20505;-70
2022/06/11 09:08:48;;;;;;;18.53;16.60;;;;;;;-143.84;98.21;45049.06;4988277;28;20444;-70
2022/06/11 09:11:30;;;;;;;18.30;15.97;;;;;;;-143.84;97.98;45047.16;4989193;28;20861;-70
2022/06/11 09:14:37;;;;;;;19.60;17.00;;;;;;;-143.84;97.83;45031.94;4989107;28;20432;-69
2022/06/11 09:17:38;;;;;;;17.67;15.77;;;;;;;-143.84;97.30;45030.03;4994856;28;20452;-70
2022/06/11 09:20:18;;;;;;;16.00;14.30;;;;;;;-143.84;97.08;45071.91;4989322;28;20449;-70
2022/06/11 09:23:13;;;;;;;18.03;15.80;;;;;;;-143.84;96.53;45047.16;4988364;28;20532;-70
2022/06/11 09:25:53;;;;;;;18.40;16.50;;;;;;;-143.84;96.73;45049.06;4988887;28;20949;-69
2022/06/11 09:28:32;;;;;;;24.50;14.37;;;;;;;-143.84;96.77;45056.69;4988810;28;20448;-70
2022/06/11 09:31:10;;;;;;;17.37;14.60;;;;;;;-143.84;96.19;45054.78;4988769;28;20444;-70
2022/06/11 09:33:41;;;;;;;17.00;14.40;;;;;;;-143.84;96.19;45052.88;4988690;28;20440;-70
2022/06/11 09:36:13;;;;;;;19.90;15.33;;;;;;;-143.84;96.50;45062.41;4988347;28;20500;-70
2022/06/11 09:38:50;;;;;;;15.50;14.10;;;;;;;-143.84;96.67;45083.34;4988570;28;20452;-70
2022/06/11 09:41:31;;;;;;;15.70;14.20;;;;;;;-143.84;96.24;45068.13;4988613;28;20957;-70
2022/06/11 09:44:08;;;;;;;17.83;14.97;;;;;;;-143.84;96.16;45049.06;4988775;28;21181;-70
2022/06/11 09:46:43;;;;;;;16.80;14.90;;;;;;;-143.84;96.08;45087.16;4989052;28;20436;-69
2022/06/11 09:49:22;;;;;;;22.30;15.83;;;;;;;-143.84;96.45;45062.41;4988415;28;20439;-70
2022/06/11 09:51:58;;;;;;;15.83;13.60;;;;;;;-143.84;96.38;45071.91;4988163;28;21006;-70
2022/06/11 09:54:45;;;;;;;18.53;16.60;;;;;;;-143.84;96.93;45056.69;4988361;28;20440;-69
2022/06/11 09:57:25;;;;;;;18.57;15.63;;;;;;;-143.84;97.34;45050.97;4988622;28;20437;-70
2022/06/11 09:59:56;;;;;;;21.20;16.90;;;;;;;-143.84;97.27;45077.63;4988333;28;20456;-70
2022/06/11 10:02:32;;;;;;;22.03;16.27;;;;;;;-143.84;97.15;45077.63;4988699;28;20439;-70
2022/06/11 10:05:01;;;;;;;19.43;15.50;;;;;;;-143.84;96.91;45041.44;4987994;28;20476;-70
2022/06/11 10:07:33;;;;;;;16.23;14.50;;;;;;;-143.84;96.85;45071.91;4987081;28;20497;-70
2022/06/11 10:10:07;;;;;;;18.73;15.50;;;;;;;-143.84;96.47;45035.75;4988151;28;20421;-70
2022/06/11 10:12:41;;;;;;;14.77;13.37;;;;;;;-143.84;95.82;45026.22;4988155;28;20500;-70
2022/06/11 10:15:15;;;;;;;16.00;14.37;;;;;;;-143.84;96.03;45045.25;4988000;28;20472;-70
2022/06/11 10:17:56;;;;;;;16.70;14.30;;;;;;;-143.84;96.16;45068.13;4988477;28;20440;-70
2022/06/11 10:20:28;;;;;;;15.17;13.43;;;;;;;-143.84;95.96;45047.16;4988477;28;20440;-70
2022/06/11 10:23:03;;;;;;;16.07;14.37;;;;;;;-143.84;96.16;45058.59;4987820;28;20436;-70
2022/06/11 10:25:36;;;;;;;14.30;12.90;;;;;;;-143.84;96.05;45052.88;4987828;28;20446;-70
2022/06/11 10:28:12;;;;;;;15.37;13.43;;;;;;;-143.84;96.00;45056.69;4988221;28;20441;-70
2022/06/11 10:30:52;;;;;;;15.10;12.80;;;;;;;-143.84;95.39;45052.88;4987820;28;20981;-70
2022/06/11 10:33:28;;;;;;;15.30;12.83;;;;;;;-143.84;94.70;45070.00;4988077;28;21183;-70
2022/06/11 10:36:00;;;;;;;12.97;11.77;;;;;;;-143.84;94.56;45050.97;4987547;28;21342;-70
2022/06/11 10:38:48;;;;;;;13.50;12.30;;;;;;;-143.84;94.25;45049.06;4987958;28;20440;-70
2022/06/11 10:41:24;;;;;;;15.97;12.40;;;;;;;-143.84;92.60;45081.44;4987546;28;20441;-70
2022/06/11 10:44:05;;;;;;;15.43;12.07;;;;;;;-143.84;92.60;45079.53;4987815;28;20432;-70
2022/06/11 10:46:34;;;;;;;13.07;11.83;;;;;;;-143.84;91.09;45047.16;4987554;28;20458;-70
2022/06/11 10:49:02;;;;;;;14.60;11.63;;;;;;;-143.84;90.86;45075.72;4987956;28;20930;-70
2022/06/11 10:51:34;;;;;;;14.23;11.90;;;;;;;-143.84;90.69;45062.41;4987323;28;20428;-70
2022/06/11 10:54:07;;;;;;;14.90;11.30;;;;;;;-143.84;90.04;45054.78;4987519;28;20445;-70
2022/06/11 10:56:40;;;;;;;14.17;11.60;;;;;;;-143.84;89.84;45056.69;4987401;28;20480;-70
2022/06/11 10:59:22;;;;;;;15.47;12.90;;;;;;;-143.84;90.65;45073.81;4987792;28;20440;-70
2022/06/11 11:01:56;;;;;;;17.17;12.33;;;;;;;-143.84;90.65;45066.22;4987347;28;20436;-73
2022/06/11 11:04:40;;;;;;;13.77;10.70;;;;;;;-143.84;89.84;45083.34;4986423;28;20491;-72
2022/06/11 11:07:17;;;;;;;12.73;11.43;;;;;;;-143.84;90.27;45062.41;4986776;28;20449;-73
2022/06/11 11:09:45;;;;;;;13.33;12.03;;;;;;;-143.84;90.63;45030.03;4987152;28;20451;-73
2022/06/11 11:12:24;;;;;;;14.70;12.27;;;;;;;-143.84;90.42;45043.34;4987297;28;20428;-72
2022/06/11 11:15:01;;;;;;;13.53;12.30;;;;;;;-143.84;91.40;45094.78;4987143;28;20446;-73
2022/06/11 11:17:30;;;;;;;12.47;11.23;;;;;;;-143.84;91.11;45054.78;4987143;28;20444;-72
2022/06/11 11:20:34;;;;;;;13.63;12.33;;;;;;;-143.84;91.78;45071.91;4987180;28;20440;-73
2022/06/11 11:23:12;;;;;;;15.80;11.23;;;;;;;-143.84;91.34;45083.34;4987019;28;20447;-73
2022/06/11 11:25:43;;;;;;;13.77;12.10;;;;;;;-143.84;92.11;45090.97;4987015;28;21301;-73
2022/06/11 11:28:20;;;;;;;14.70;12.90;;;;;;;-143.84;92.51;45043.34;4987106;28;20447;-73
2022/06/11 11:30:58;;;;;;;14.23;12.30;;;;;;;-143.84;92.28;45070.00;4986958;28;20493;-73
2022/06/11 11:33:27;;;;;;;13.90;12.50;;;;;;;-143.84;91.98;45052.88;4986430;28;20498;-73
2022/06/11 11:36:04;;;;;;;11.83;10.77;;;;;;;-143.84;91.60;45079.53;4986252;28;20476;-73